sensor_id;sensor_type;location;lat;lon;timestamp;P1;durP1;ratioP1;P2;durP2;ratioP2
75504;SDS011;64085;54.974;73.410;2024-02-23T00:01:57;16.70;;;9.10;;
75504;SDS011;64085;54.974;73.410;2024-02-23T00:04:22;15.60;;;9.85;;
75504;SDS011;64085;54.974;73.410;2024-02-23T00:06:48;23.75;;;11.05;;
75504;SDS011;64085;54.974;73.410;2024-02-23T00:09:13;26.88;;;10.70;;
75504;SDS011;64085;54.974;73.410;2024-02-23T00:11:39;20.55;;;11.38;;
75504;SDS011;64085;54.974;73.410;2024-02-23T00:14:06;19.17;;;9.88;;
75504;SDS011;64085;54.974;73.410;2024-02-23T00:16:37;14.38;;;5.03;;
75504;SDS011;64085;54.974;73.410;2024-02-23T00:19:02;17.80;;;8.93;;
75504;SDS011;64085;54.974;73.410;2024-02-23T00:21:27;29.25;;;11.93;;
75504;SDS011;64085;54.974;73.410;2024-02-23T00:23:53;30.02;;;13.55;;
75504;SDS011;64085;54.974;73.410;2024-02-23T00:26:18;8.82;;;6.63;;
75504;SDS011;64085;54.974;73.410;2024-02-23T00:28:44;12.13;;;5.13;;
75504;SDS011;64085;54.974;73.410;2024-02-23T00:31:09;11.18;;;7.72;;
75504;SDS011;64085;54.974;73.410;2024-02-23T00:33:35;16.30;;;8.35;;
75504;SDS011;64085;54.974;73.410;2024-02-23T00:36:02;19.45;;;8.85;;
75504;SDS011;64085;54.974;73.410;2024-02-23T00:38:28;19.58;;;10.30;;
75504;SDS011;64085;54.974;73.410;2024-02-23T00:40:53;18.23;;;7.75;;
75504;SDS011;64085;54.974;73.410;2024-02-23T00:43:37;26.33;;;12.75;;
75504;SDS011;64085;54.974;73.410;2024-02-23T00:46:03;16.27;;;9.38;;
75504;SDS011;64085;54.974;73.410;2024-02-23T00:48:29;21.15;;;9.25;;
75504;SDS011;64085;54.974;73.410;2024-02-23T00:50:55;13.70;;;7.80;;
75504;SDS011;64085;54.974;73.410;2024-02-23T00:53:20;11.70;;;6.00;;
75504;SDS011;64085;54.974;73.410;2024-02-23T00:55:47;15.88;;;8.77;;
75504;SDS011;64085;54.974;73.410;2024-02-23T00:58:12;22.65;;;11.00;;
75504;SDS011;64085;54.974;73.410;2024-02-23T01:00:38;9.88;;;6.68;;
75504;SDS011;64085;54.974;73.410;2024-02-23T01:03:03;9.13;;;5.60;;
75504;SDS011;64085;54.974;73.410;2024-02-23T01:05:29;17.17;;;9.00;;
75504;SDS011;64085;54.974;73.410;2024-02-23T01:07:54;12.02;;;7.18;;
75504;SDS011;64085;54.974;73.410;2024-02-23T01:10:20;8.68;;;5.57;;
75504;SDS011;64085;54.974;73.410;2024-02-23T01:12:45;22.20;;;8.60;;
75504;SDS011;64085;54.974;73.410;2024-02-23T01:15:11;16.92;;;6.90;;
75504;SDS011;64085;54.974;73.410;2024-02-23T01:17:36;15.75;;;7.05;;
75504;SDS011;64085;54.974;73.410;2024-02-23T01:20:02;18.45;;;9.80;;
75504;SDS011;64085;54.974;73.410;2024-02-23T01:22:28;19.13;;;9.73;;
75504;SDS011;64085;54.974;73.410;2024-02-23T01:24:53;20.73;;;9.38;;
75504;SDS011;64085;54.974;73.410;2024-02-23T01:27:19;13.27;;;4.97;;
75504;SDS011;64085;54.974;73.410;2024-02-23T01:29:44;25.45;;;12.30;;
75504;SDS011;64085;54.974;73.410;2024-02-23T01:32:10;31.38;;;13.35;;
75504;SDS011;64085;54.974;73.410;2024-02-23T01:34:35;33.30;;;15.93;;
75504;SDS011;64085;54.974;73.410;2024-02-23T01:37:01;23.85;;;9.95;;
75504;SDS011;64085;54.974;73.410;2024-02-23T01:39:26;16.15;;;10.05;;
75504;SDS011;64085;54.974;73.410;2024-02-23T01:41:52;27.25;;;12.55;;
75504;SDS011;64085;54.974;73.410;2024-02-23T01:44:17;21.45;;;9.75;;
75504;SDS011;64085;54.974;73.410;2024-02-23T01:46:43;21.33;;;11.68;;
75504;SDS011;64085;54.974;73.410;2024-02-23T01:49:09;16.23;;;9.10;;
75504;SDS011;64085;54.974;73.410;2024-02-23T01:51:35;14.85;;;7.40;;
75504;SDS011;64085;54.974;73.410;2024-02-23T01:54:00;10.85;;;6.00;;
75504;SDS011;64085;54.974;73.410;2024-02-23T01:56:26;15.00;;;8.30;;
75504;SDS011;64085;54.974;73.410;2024-02-23T01:58:52;29.23;;;13.10;;
75504;SDS011;64085;54.974;73.410;2024-02-23T02:01:19;3.85;;;3.53;;
75504;SDS011;64085;54.974;73.410;2024-02-23T02:03:44;18.05;;;6.50;;
75504;SDS011;64085;54.974;73.410;2024-02-23T02:06:10;12.23;;;6.97;;
75504;SDS011;64085;54.974;73.410;2024-02-23T02:08:35;6.45;;;5.35;;
75504;SDS011;64085;54.974;73.410;2024-02-23T02:11:01;27.92;;;13.35;;
75504;SDS011;64085;54.974;73.410;2024-02-23T02:13:30;23.48;;;10.75;;
75504;SDS011;64085;54.974;73.410;2024-02-23T02:15:57;31.85;;;16.13;;
75504;SDS011;64085;54.974;73.410;2024-02-23T02:18:23;3.38;;;3.08;;
75504;SDS011;64085;54.974;73.410;2024-02-23T02:20:53;27.40;;;11.82;;
75504;SDS011;64085;54.974;73.410;2024-02-23T02:23:19;29.88;;;11.90;;
75504;SDS011;64085;54.974;73.410;2024-02-23T02:25:44;12.48;;;6.95;;
75504;SDS011;64085;54.974;73.410;2024-02-23T02:28:11;11.25;;;5.93;;
75504;SDS011;64085;54.974;73.410;2024-02-23T02:30:37;17.75;;;9.25;;
75504;SDS011;64085;54.974;73.410;2024-02-23T02:33:03;14.38;;;8.68;;
75504;SDS011;64085;54.974;73.410;2024-02-23T02:35:28;40.40;;;18.80;;
75504;SDS011;64085;54.974;73.410;2024-02-23T02:37:53;21.42;;;11.23;;
75504;SDS011;64085;54.974;73.410;2024-02-23T02:40:19;18.13;;;10.57;;
75504;SDS011;64085;54.974;73.410;2024-02-23T02:42:44;16.55;;;8.13;;
75504;SDS011;64085;54.974;73.410;2024-02-23T02:45:10;11.43;;;6.70;;
75504;SDS011;64085;54.974;73.410;2024-02-23T02:47:35;17.25;;;9.40;;
75504;SDS011;64085;54.974;73.410;2024-02-23T02:50:01;36.97;;;12.50;;
75504;SDS011;64085;54.974;73.410;2024-02-23T02:52:27;26.45;;;15.70;;
75504;SDS011;64085;54.974;73.410;2024-02-23T02:54:53;25.85;;;12.18;;
75504;SDS011;64085;54.974;73.410;2024-02-23T02:57:19;15.70;;;9.50;;
75504;SDS011;64085;54.974;73.410;2024-02-23T02:59:44;29.33;;;18.45;;
75504;SDS011;64085;54.974;73.410;2024-02-23T03:02:11;42.75;;;23.65;;
75504;SDS011;64085;54.974;73.410;2024-02-23T03:04:36;23.17;;;12.93;;
75504;SDS011;64085;54.974;73.410;2024-02-23T03:07:02;53.47;;;27.15;;
75504;SDS011;64085;54.974;73.410;2024-02-23T03:09:27;22.05;;;11.77;;
75504;SDS011;64085;54.974;73.410;2024-02-23T03:11:53;52.65;;;26.35;;
75504;SDS011;64085;54.974;73.410;2024-02-23T03:14:18;42.15;;;19.05;;
75504;SDS011;64085;54.974;73.410;2024-02-23T03:16:45;64.28;;;27.85;;
75504;SDS011;64085;54.974;73.410;2024-02-23T03:19:12;38.30;;;17.63;;
75504;SDS011;64085;54.974;73.410;2024-02-23T03:21:38;35.38;;;16.02;;
75504;SDS011;64085;54.974;73.410;2024-02-23T03:24:04;11.35;;;6.43;;
75504;SDS011;64085;54.974;73.410;2024-02-23T03:26:29;31.83;;;15.65;;
75504;SDS011;64085;54.974;73.410;2024-02-23T03:28:55;16.98;;;5.35;;
75504;SDS011;64085;54.974;73.410;2024-02-23T03:31:20;17.90;;;9.38;;
75504;SDS011;64085;54.974;73.410;2024-02-23T03:33:45;17.30;;;12.15;;
75504;SDS011;64085;54.974;73.410;2024-02-23T03:36:11;26.85;;;12.80;;
75504;SDS011;64085;54.974;73.410;2024-02-23T03:38:37;20.65;;;13.88;;
75504;SDS011;64085;54.974;73.410;2024-02-23T03:41:02;33.50;;;17.52;;
75504;SDS011;64085;54.974;73.410;2024-02-23T03:43:28;55.55;;;26.95;;
75504;SDS011;64085;54.974;73.410;2024-02-23T03:45:53;47.97;;;21.95;;
75504;SDS011;64085;54.974;73.410;2024-02-23T03:48:19;30.35;;;14.25;;
75504;SDS011;64085;54.974;73.410;2024-02-23T03:50:45;30.55;;;13.05;;
75504;SDS011;64085;54.974;73.410;2024-02-23T03:53:10;25.83;;;12.10;;
75504;SDS011;64085;54.974;73.410;2024-02-23T03:55:36;73.90;;;35.78;;
75504;SDS011;64085;54.974;73.410;2024-02-23T03:58:01;26.23;;;16.00;;
75504;SDS011;64085;54.974;73.410;2024-02-23T04:00:27;58.45;;;27.45;;
75504;SDS011;64085;54.974;73.410;2024-02-23T04:02:52;24.83;;;12.70;;
75504;SDS011;64085;54.974;73.410;2024-02-23T04:05:18;44.28;;;23.05;;
75504;SDS011;64085;54.974;73.410;2024-02-23T04:07:44;60.33;;;26.90;;
75504;SDS011;64085;54.974;73.410;2024-02-23T04:10:09;53.92;;;25.65;;
75504;SDS011;64085;54.974;73.410;2024-02-23T04:12:35;60.30;;;27.63;;
75504;SDS011;64085;54.974;73.410;2024-02-23T04:15:00;63.08;;;26.77;;
75504;SDS011;64085;54.974;73.410;2024-02-23T04:17:26;53.83;;;23.25;;
75504;SDS011;64085;54.974;73.410;2024-02-23T04:19:51;52.78;;;22.42;;
75504;SDS011;64085;54.974;73.410;2024-02-23T04:22:17;40.00;;;18.65;;
75504;SDS011;64085;54.974;73.410;2024-02-23T04:24:42;41.38;;;15.18;;
75504;SDS011;64085;54.974;73.410;2024-02-23T04:27:08;49.88;;;21.92;;
75504;SDS011;64085;54.974;73.410;2024-02-23T04:29:33;45.97;;;18.95;;
75504;SDS011;64085;54.974;73.410;2024-02-23T04:31:59;40.05;;;21.67;;
75504;SDS011;64085;54.974;73.410;2024-02-23T04:34:25;44.85;;;21.45;;
75504;SDS011;64085;54.974;73.410;2024-02-23T04:36:50;44.78;;;21.95;;
75504;SDS011;64085;54.974;73.410;2024-02-23T04:39:16;50.60;;;22.35;;
75504;SDS011;64085;54.974;73.410;2024-02-23T04:41:41;39.50;;;19.20;;
75504;SDS011;64085;54.974;73.410;2024-02-23T04:44:07;47.75;;;24.10;;
75504;SDS011;64085;54.974;73.410;2024-02-23T04:46:32;35.35;;;16.52;;
75504;SDS011;64085;54.974;73.410;2024-02-23T04:48:59;48.13;;;21.45;;
75504;SDS011;64085;54.974;73.410;2024-02-23T04:51:25;45.13;;;20.23;;
75504;SDS011;64085;54.974;73.410;2024-02-23T04:53:50;42.20;;;20.25;;
75504;SDS011;64085;54.974;73.410;2024-02-23T04:56:15;44.00;;;20.83;;
75504;SDS011;64085;54.974;73.410;2024-02-23T04:58:41;22.98;;;11.35;;
75504;SDS011;64085;54.974;73.410;2024-02-23T05:01:08;37.67;;;22.15;;
75504;SDS011;64085;54.974;73.410;2024-02-23T05:03:33;34.38;;;15.80;;
75504;SDS011;64085;54.974;73.410;2024-02-23T05:05:59;30.95;;;14.50;;
75504;SDS011;64085;54.974;73.410;2024-02-23T05:08:24;43.42;;;17.08;;
75504;SDS011;64085;54.974;73.410;2024-02-23T05:10:52;25.75;;;12.38;;
75504;SDS011;64085;54.974;73.410;2024-02-23T05:13:18;37.22;;;17.65;;
75504;SDS011;64085;54.974;73.410;2024-02-23T05:15:43;35.10;;;15.88;;
75504;SDS011;64085;54.974;73.410;2024-02-23T05:18:09;34.17;;;15.30;;
75504;SDS011;64085;54.974;73.410;2024-02-23T05:20:34;44.55;;;20.33;;
75504;SDS011;64085;54.974;73.410;2024-02-23T05:22:59;32.83;;;16.25;;
75504;SDS011;64085;54.974;73.410;2024-02-23T05:25:25;39.22;;;18.58;;
75504;SDS011;64085;54.974;73.410;2024-02-23T05:27:52;33.97;;;17.73;;
75504;SDS011;64085;54.974;73.410;2024-02-23T05:30:17;48.83;;;23.20;;
75504;SDS011;64085;54.974;73.410;2024-02-23T05:32:43;30.65;;;15.00;;
75504;SDS011;64085;54.974;73.410;2024-02-23T05:35:08;38.97;;;20.75;;
75504;SDS011;64085;54.974;73.410;2024-02-23T05:37:34;38.08;;;21.33;;
75504;SDS011;64085;54.974;73.410;2024-02-23T05:40:00;38.20;;;20.85;;
75504;SDS011;64085;54.974;73.410;2024-02-23T05:42:29;40.80;;;21.50;;
75504;SDS011;64085;54.974;73.410;2024-02-23T05:44:54;43.13;;;21.88;;
75504;SDS011;64085;54.974;73.410;2024-02-23T05:47:19;41.80;;;18.00;;
75504;SDS011;64085;54.974;73.410;2024-02-23T05:49:46;40.00;;;20.77;;
75504;SDS011;64085;54.974;73.410;2024-02-23T05:52:12;39.72;;;22.00;;
75504;SDS011;64085;54.974;73.410;2024-02-23T05:54:37;21.73;;;10.70;;
75504;SDS011;64085;54.974;73.410;2024-02-23T05:59:47;36.40;;;17.08;;
75504;SDS011;64085;54.974;73.410;2024-02-23T06:02:12;34.03;;;18.60;;
75504;SDS011;64085;54.974;73.410;2024-02-23T06:04:39;22.27;;;13.57;;
75504;SDS011;64085;54.974;73.410;2024-02-23T06:07:05;34.03;;;17.98;;
75504;SDS011;64085;54.974;73.410;2024-02-23T06:09:30;30.40;;;16.42;;
75504;SDS011;64085;54.974;73.410;2024-02-23T06:11:56;33.03;;;16.73;;
75504;SDS011;64085;54.974;73.410;2024-02-23T06:14:21;48.65;;;26.15;;
75504;SDS011;64085;54.974;73.410;2024-02-23T06:16:48;28.70;;;11.45;;
75504;SDS011;64085;54.974;73.410;2024-02-23T06:19:14;16.27;;;10.63;;
75504;SDS011;64085;54.974;73.410;2024-02-23T06:21:39;14.88;;;9.50;;
75504;SDS011;64085;54.974;73.410;2024-02-23T06:24:05;26.50;;;14.32;;
75504;SDS011;64085;54.974;73.410;2024-02-23T06:26:30;22.88;;;14.07;;
75504;SDS011;64085;54.974;73.410;2024-02-23T06:29:14;21.77;;;11.70;;
75504;SDS011;64085;54.974;73.410;2024-02-23T06:31:58;14.27;;;7.85;;
75504;SDS011;64085;54.974;73.410;2024-02-23T06:34:26;11.88;;;8.70;;
75504;SDS011;64085;54.974;73.410;2024-02-23T06:36:52;15.75;;;8.15;;
75504;SDS011;64085;54.974;73.410;2024-02-23T06:39:17;23.63;;;11.75;;
75504;SDS011;64085;54.974;73.410;2024-02-23T06:41:43;15.95;;;7.47;;
75504;SDS011;64085;54.974;73.410;2024-02-23T06:44:08;18.27;;;10.32;;
75504;SDS011;64085;54.974;73.410;2024-02-23T06:46:34;18.35;;;7.07;;
75504;SDS011;64085;54.974;73.410;2024-02-23T06:48:59;17.95;;;9.43;;
75504;SDS011;64085;54.974;73.410;2024-02-23T06:51:25;32.58;;;15.27;;
75504;SDS011;64085;54.974;73.410;2024-02-23T06:53:50;19.35;;;7.80;;
75504;SDS011;64085;54.974;73.410;2024-02-23T06:56:16;11.55;;;8.13;;
75504;SDS011;64085;54.974;73.410;2024-02-23T06:58:41;14.07;;;7.72;;
75504;SDS011;64085;54.974;73.410;2024-02-23T07:01:07;11.10;;;6.22;;
75504;SDS011;64085;54.974;73.410;2024-02-23T07:03:36;15.70;;;6.68;;
75504;SDS011;64085;54.974;73.410;2024-02-23T07:06:02;28.45;;;11.68;;
75504;SDS011;64085;54.974;73.410;2024-02-23T07:08:28;17.20;;;6.38;;
75504;SDS011;64085;54.974;73.410;2024-02-23T07:10:53;19.95;;;9.15;;
75504;SDS011;64085;54.974;73.410;2024-02-23T07:13:19;22.27;;;10.15;;
75504;SDS011;64085;54.974;73.410;2024-02-23T07:15:45;21.23;;;11.23;;
75504;SDS011;64085;54.974;73.410;2024-02-23T07:18:10;31.00;;;13.95;;
75504;SDS011;64085;54.974;73.410;2024-02-23T07:20:36;26.63;;;10.68;;
75504;SDS011;64085;54.974;73.410;2024-02-23T07:23:01;24.27;;;9.48;;
75504;SDS011;64085;54.974;73.410;2024-02-23T07:25:27;20.83;;;8.65;;
75504;SDS011;64085;54.974;73.410;2024-02-23T07:27:52;29.02;;;13.23;;
75504;SDS011;64085;54.974;73.410;2024-02-23T07:30:18;13.93;;;6.15;;
75504;SDS011;64085;54.974;73.410;2024-02-23T07:32:43;21.30;;;7.85;;
75504;SDS011;64085;54.974;73.410;2024-02-23T07:35:09;4.97;;;2.20;;
75504;SDS011;64085;54.974;73.410;2024-02-23T07:37:35;14.38;;;7.95;;
75504;SDS011;64085;54.974;73.410;2024-02-23T07:40:01;10.50;;;5.28;;
75504;SDS011;64085;54.974;73.410;2024-02-23T07:42:28;20.27;;;8.35;;
75504;SDS011;64085;54.974;73.410;2024-02-23T07:44:54;21.13;;;9.68;;
75504;SDS011;64085;54.974;73.410;2024-02-23T07:47:19;27.30;;;9.20;;
75504;SDS011;64085;54.974;73.410;2024-02-23T07:49:44;24.40;;;10.27;;
75504;SDS011;64085;54.974;73.410;2024-02-23T07:52:10;20.67;;;8.60;;
75504;SDS011;64085;54.974;73.410;2024-02-23T07:54:35;12.52;;;7.65;;
75504;SDS011;64085;54.974;73.410;2024-02-23T07:57:01;13.55;;;5.70;;
75504;SDS011;64085;54.974;73.410;2024-02-23T07:59:26;13.23;;;6.63;;
75504;SDS011;64085;54.974;73.410;2024-02-23T08:01:53;13.70;;;6.45;;
75504;SDS011;64085;54.974;73.410;2024-02-23T08:04:18;23.45;;;8.68;;
75504;SDS011;64085;54.974;73.410;2024-02-23T08:06:44;15.50;;;8.02;;
75504;SDS011;64085;54.974;73.410;2024-02-23T08:09:09;23.95;;;10.60;;
75504;SDS011;64085;54.974;73.410;2024-02-23T08:11:35;13.18;;;8.02;;
75504;SDS011;64085;54.974;73.410;2024-02-23T08:14:00;7.18;;;4.53;;
75504;SDS011;64085;54.974;73.410;2024-02-23T08:16:28;8.27;;;4.63;;
75504;SDS011;64085;54.974;73.410;2024-02-23T08:18:53;15.45;;;6.07;;
75504;SDS011;64085;54.974;73.410;2024-02-23T08:21:19;5.78;;;2.67;;
75504;SDS011;64085;54.974;73.410;2024-02-23T08:23:44;13.13;;;5.88;;
75504;SDS011;64085;54.974;73.410;2024-02-23T08:26:10;12.75;;;5.05;;
75504;SDS011;64085;54.974;73.410;2024-02-23T08:28:36;9.00;;;4.05;;
75504;SDS011;64085;54.974;73.410;2024-02-23T08:31:01;11.20;;;6.30;;
75504;SDS011;64085;54.974;73.410;2024-02-23T08:33:27;7.88;;;3.08;;
75504;SDS011;64085;54.974;73.410;2024-02-23T08:35:52;12.93;;;6.05;;
75504;SDS011;64085;54.974;73.410;2024-02-23T08:38:17;6.72;;;4.45;;
75504;SDS011;64085;54.974;73.410;2024-02-23T08:40:43;1.67;;;1.55;;
75504;SDS011;64085;54.974;73.410;2024-02-23T08:43:10;18.50;;;6.40;;
75504;SDS011;64085;54.974;73.410;2024-02-23T08:45:35;10.15;;;4.30;;
75504;SDS011;64085;54.974;73.410;2024-02-23T08:48:01;2.60;;;2.47;;
75504;SDS011;64085;54.974;73.410;2024-02-23T08:50:26;13.65;;;5.68;;
75504;SDS011;64085;54.974;73.410;2024-02-23T08:52:52;3.08;;;2.22;;
75504;SDS011;64085;54.974;73.410;2024-02-23T08:55:17;8.50;;;5.10;;
75504;SDS011;64085;54.974;73.410;2024-02-23T08:57:44;4.65;;;1.58;;
75504;SDS011;64085;54.974;73.410;2024-02-23T09:00:27;5.53;;;3.05;;
75504;SDS011;64085;54.974;73.410;2024-02-23T09:02:53;16.92;;;7.43;;
75504;SDS011;64085;54.974;73.410;2024-02-23T09:05:19;12.88;;;4.18;;
75504;SDS011;64085;54.974;73.410;2024-02-23T09:07:45;11.48;;;4.57;;
75504;SDS011;64085;54.974;73.410;2024-02-23T09:10:11;4.57;;;2.65;;
75504;SDS011;64085;54.974;73.410;2024-02-23T09:12:37;13.75;;;5.18;;
75504;SDS011;64085;54.974;73.410;2024-02-23T09:15:02;5.88;;;3.42;;
75504;SDS011;64085;54.974;73.410;2024-02-23T09:17:28;3.15;;;1.27;;
75504;SDS011;64085;54.974;73.410;2024-02-23T09:19:53;7.38;;;3.60;;
75504;SDS011;64085;54.974;73.410;2024-02-23T09:22:19;7.40;;;2.92;;
75504;SDS011;64085;54.974;73.410;2024-02-23T09:24:44;12.18;;;4.55;;
75504;SDS011;64085;54.974;73.410;2024-02-23T09:27:10;6.15;;;3.33;;
75504;SDS011;64085;54.974;73.410;2024-02-23T09:29:35;1.25;;;1.15;;
75504;SDS011;64085;54.974;73.410;2024-02-23T09:32:01;8.35;;;3.35;;
75504;SDS011;64085;54.974;73.410;2024-02-23T09:34:26;6.30;;;2.40;;
75504;SDS011;64085;54.974;73.410;2024-02-23T09:36:52;10.52;;;4.95;;
75504;SDS011;64085;54.974;73.410;2024-02-23T09:39:17;1.40;;;0.75;;
75504;SDS011;64085;54.974;73.410;2024-02-23T09:41:43;7.03;;;4.55;;
75504;SDS011;64085;54.974;73.410;2024-02-23T09:44:09;4.18;;;2.67;;
75504;SDS011;64085;54.974;73.410;2024-02-23T09:46:36;2.85;;;2.47;;
75504;SDS011;64085;54.974;73.410;2024-02-23T09:49:02;2.38;;;1.52;;
75504;SDS011;64085;54.974;73.410;2024-02-23T09:51:28;5.15;;;2.42;;
75504;SDS011;64085;54.974;73.410;2024-02-23T09:53:54;8.55;;;3.45;;
75504;SDS011;64085;54.974;73.410;2024-02-23T09:56:21;8.35;;;3.95;;
75504;SDS011;64085;54.974;73.410;2024-02-23T09:58:48;4.40;;;3.25;;
75504;SDS011;64085;54.974;73.410;2024-02-23T10:01:15;2.30;;;2.10;;
75504;SDS011;64085;54.974;73.410;2024-02-23T10:03:45;8.55;;;4.50;;
75504;SDS011;64085;54.974;73.410;2024-02-23T10:06:10;12.30;;;7.28;;
75504;SDS011;64085;54.974;73.410;2024-02-23T10:08:36;2.80;;;2.63;;
75504;SDS011;64085;54.974;73.410;2024-02-23T10:11:01;5.20;;;3.30;;
75504;SDS011;64085;54.974;73.410;2024-02-23T10:13:29;14.90;;;1.55;;
75504;SDS011;64085;54.974;73.410;2024-02-23T10:15:54;9.63;;;5.20;;
75504;SDS011;64085;54.974;73.410;2024-02-23T10:18:20;8.95;;;4.95;;
75504;SDS011;64085;54.974;73.410;2024-02-23T10:20:46;5.07;;;3.85;;
75504;SDS011;64085;54.974;73.410;2024-02-23T10:23:12;19.77;;;7.93;;
75504;SDS011;64085;54.974;73.410;2024-02-23T10:25:38;7.40;;;4.22;;
75504;SDS011;64085;54.974;73.410;2024-02-23T10:28:06;16.95;;;8.10;;
75504;SDS011;64085;54.974;73.410;2024-02-23T10:30:32;2.95;;;2.65;;
75504;SDS011;64085;54.974;73.410;2024-02-23T10:32:58;10.98;;;6.88;;
75504;SDS011;64085;54.974;73.410;2024-02-23T10:35:24;10.93;;;3.85;;
75504;SDS011;64085;54.974;73.410;2024-02-23T10:37:50;12.27;;;6.78;;
75504;SDS011;64085;54.974;73.410;2024-02-23T10:40:17;3.63;;;2.92;;
75504;SDS011;64085;54.974;73.410;2024-02-23T10:42:43;14.68;;;6.28;;
75504;SDS011;64085;54.974;73.410;2024-02-23T10:45:16;19.27;;;8.18;;
75504;SDS011;64085;54.974;73.410;2024-02-23T10:47:42;7.72;;;4.30;;
75504;SDS011;64085;54.974;73.410;2024-02-23T10:50:08;0.03;;;0.03;;
75504;SDS011;64085;54.974;73.410;2024-02-23T10:52:33;8.80;;;4.40;;
75504;SDS011;64085;54.974;73.410;2024-02-23T10:55:00;2.63;;;1.75;;
75504;SDS011;64085;54.974;73.410;2024-02-23T10:57:28;3.47;;;3.17;;
75504;SDS011;64085;54.974;73.410;2024-02-23T10:59:53;2.85;;;2.63;;
75504;SDS011;64085;54.974;73.410;2024-02-23T11:02:19;6.47;;;5.43;;
75504;SDS011;64085;54.974;73.410;2024-02-23T11:04:46;14.75;;;6.15;;
75504;SDS011;64085;54.974;73.410;2024-02-23T11:07:16;12.10;;;6.35;;
75504;SDS011;64085;54.974;73.410;2024-02-23T11:09:47;8.80;;;5.88;;
75504;SDS011;64085;54.974;73.410;2024-02-23T11:12:21;25.23;;;6.65;;
75504;SDS011;64085;54.974;73.410;2024-02-23T11:14:48;6.70;;;6.05;;
75504;SDS011;64085;54.974;73.410;2024-02-23T11:17:20;17.70;;;10.38;;
75504;SDS011;64085;54.974;73.410;2024-02-23T11:19:46;4.68;;;3.45;;
75504;SDS011;64085;54.974;73.410;2024-02-23T11:22:12;17.80;;;9.50;;
75504;SDS011;64085;54.974;73.410;2024-02-23T11:24:42;8.07;;;6.18;;
75504;SDS011;64085;54.974;73.410;2024-02-23T11:27:12;3.72;;;3.55;;
75504;SDS011;64085;54.974;73.410;2024-02-23T11:29:38;23.27;;;9.63;;
75504;SDS011;64085;54.974;73.410;2024-02-23T11:32:12;11.80;;;7.07;;
75504;SDS011;64085;54.974;73.410;2024-02-23T11:34:38;4.70;;;4.45;;
75504;SDS011;64085;54.974;73.410;2024-02-23T11:37:10;18.55;;;4.80;;
75504;SDS011;64085;54.974;73.410;2024-02-23T11:39:39;8.48;;;6.78;;
75504;SDS011;64085;54.974;73.410;2024-02-23T11:42:08;18.33;;;8.88;;
75504;SDS011;64085;54.974;73.410;2024-02-23T11:44:34;12.15;;;5.80;;
75504;SDS011;64085;54.974;73.410;2024-02-23T11:46:59;7.22;;;5.35;;
75504;SDS011;64085;54.974;73.410;2024-02-23T11:49:28;41.95;;;18.42;;
75504;SDS011;64085;54.974;73.410;2024-02-23T11:51:54;13.45;;;12.23;;
75504;SDS011;64085;54.974;73.410;2024-02-23T11:54:20;7.57;;;6.85;;
75504;SDS011;64085;54.974;73.410;2024-02-23T11:56:47;3.63;;;2.97;;
75504;SDS011;64085;54.974;73.410;2024-02-23T11:59:14;15.75;;;9.52;;
75504;SDS011;64085;54.974;73.410;2024-02-23T12:01:39;11.88;;;4.00;;
75504;SDS011;64085;54.974;73.410;2024-02-23T12:04:05;12.45;;;9.25;;
75504;SDS011;64085;54.974;73.410;2024-02-23T12:06:30;4.40;;;4.00;;
75504;SDS011;64085;54.974;73.410;2024-02-23T12:08:57;6.65;;;6.13;;
75504;SDS011;64085;54.974;73.410;2024-02-23T12:11:41;17.63;;;11.32;;
75504;SDS011;64085;54.974;73.410;2024-02-23T12:14:07;9.68;;;5.72;;
75504;SDS011;64085;54.974;73.410;2024-02-23T12:16:36;28.35;;;7.82;;
75504;SDS011;64085;54.974;73.410;2024-02-23T12:19:02;7.68;;;6.32;;
75504;SDS011;64085;54.974;73.410;2024-02-23T12:21:28;9.10;;;5.43;;
75504;SDS011;64085;54.974;73.410;2024-02-23T12:23:53;34.90;;;9.05;;
75504;SDS011;64085;54.974;73.410;2024-02-23T12:26:19;37.50;;;15.90;;
75504;SDS011;64085;54.974;73.410;2024-02-23T12:31:31;3.55;;;1.95;;
75504;SDS011;64085;54.974;73.410;2024-02-23T12:33:57;7.65;;;4.60;;
75504;SDS011;64085;54.974;73.410;2024-02-23T12:36:22;34.70;;;17.10;;
75504;SDS011;64085;54.974;73.410;2024-02-23T12:38:48;11.07;;;9.45;;
75504;SDS011;64085;54.974;73.410;2024-02-23T12:41:14;10.95;;;7.22;;
75504;SDS011;64085;54.974;73.410;2024-02-23T12:43:39;6.82;;;4.90;;
75504;SDS011;64085;54.974;73.410;2024-02-23T12:46:05;8.73;;;6.55;;
75504;SDS011;64085;54.974;73.410;2024-02-23T12:48:31;17.50;;;8.90;;
75504;SDS011;64085;54.974;73.410;2024-02-23T12:50:57;7.32;;;5.82;;
75504;SDS011;64085;54.974;73.410;2024-02-23T12:53:39;15.90;;;9.43;;
75504;SDS011;64085;54.974;73.410;2024-02-23T12:56:05;23.88;;;10.90;;
75504;SDS011;64085;54.974;73.410;2024-02-23T13:01:19;5.85;;;5.38;;
75504;SDS011;64085;54.974;73.410;2024-02-23T13:03:44;14.02;;;6.75;;
75504;SDS011;64085;54.974;73.410;2024-02-23T13:06:10;15.55;;;8.75;;
75504;SDS011;64085;54.974;73.410;2024-02-23T13:08:35;11.32;;;5.05;;
75504;SDS011;64085;54.974;73.410;2024-02-23T13:11:01;10.43;;;5.18;;
75504;SDS011;64085;54.974;73.410;2024-02-23T13:13:27;18.17;;;6.88;;
75504;SDS011;64085;54.974;73.410;2024-02-23T13:15:53;2.05;;;1.83;;
75504;SDS011;64085;54.974;73.410;2024-02-23T13:18:19;11.75;;;5.55;;
75504;SDS011;64085;54.974;73.410;2024-02-23T13:20:44;11.13;;;5.32;;
75504;SDS011;64085;54.974;73.410;2024-02-23T13:23:10;4.60;;;4.22;;
75504;SDS011;64085;54.974;73.410;2024-02-23T13:25:37;3.17;;;2.92;;
75504;SDS011;64085;54.974;73.410;2024-02-23T13:28:02;9.15;;;6.40;;
75504;SDS011;64085;54.974;73.410;2024-02-23T13:30:29;8.10;;;4.55;;
75504;SDS011;64085;54.974;73.410;2024-02-23T13:32:55;10.13;;;3.78;;
75504;SDS011;64085;54.974;73.410;2024-02-23T13:35:20;30.27;;;11.13;;
75504;SDS011;64085;54.974;73.410;2024-02-23T13:37:47;6.97;;;3.67;;
75504;SDS011;64085;54.974;73.410;2024-02-23T13:40:12;4.35;;;3.22;;
75504;SDS011;64085;54.974;73.410;2024-02-23T13:42:38;17.35;;;7.15;;
75504;SDS011;64085;54.974;73.410;2024-02-23T13:45:07;18.50;;;8.63;;
75504;SDS011;64085;54.974;73.410;2024-02-23T13:47:36;19.42;;;11.63;;
75504;SDS011;64085;54.974;73.410;2024-02-23T13:50:02;29.75;;;14.27;;
75504;SDS011;64085;54.974;73.410;2024-02-23T13:52:28;16.58;;;4.88;;
75504;SDS011;64085;54.974;73.410;2024-02-23T13:54:53;5.60;;;3.60;;
75504;SDS011;64085;54.974;73.410;2024-02-23T13:57:19;8.98;;;3.55;;
75504;SDS011;64085;54.974;73.410;2024-02-23T13:59:45;26.30;;;14.88;;
75504;SDS011;64085;54.974;73.410;2024-02-23T14:02:11;5.15;;;4.20;;
75504;SDS011;64085;54.974;73.410;2024-02-23T14:04:37;17.83;;;8.50;;
75504;SDS011;64085;54.974;73.410;2024-02-23T14:07:02;16.20;;;9.15;;
75504;SDS011;64085;54.974;73.410;2024-02-23T14:09:29;22.95;;;9.57;;
75504;SDS011;64085;54.974;73.410;2024-02-23T14:11:55;21.20;;;8.88;;
75504;SDS011;64085;54.974;73.410;2024-02-23T14:14:20;14.73;;;8.18;;
75504;SDS011;64085;54.974;73.410;2024-02-23T14:16:46;22.05;;;10.68;;
75504;SDS011;64085;54.974;73.410;2024-02-23T14:19:11;22.90;;;9.10;;
75504;SDS011;64085;54.974;73.410;2024-02-23T14:21:37;10.43;;;8.07;;
75504;SDS011;64085;54.974;73.410;2024-02-23T14:24:03;15.82;;;7.90;;